Somes Bar, CA (95568)

5:04 PM PDT on October 21, 2014 (GMT -0700)
RAWS SAWYERS BAR CA US | Change Station
CLOSE
Current Station
Personal Weather Station
Location: Forks Of Salmon, CA
Elevation: 2455 ft
Nearby Weather Stations

Elev 2455 ft 41.30 °N, 123.13 °W | Updated 42 minutes ago

Partly Cloudy
Partly Cloudy
59 °F
Feels Like 59 °F
N
4
Wind Variable Wind from West
Gusts 9.0 mph

Today
High -- | Low -- °F
--% Chance of Precip.
Yesterday
High -- | Low -- °F
Precip. -- in
7:32 AM 6:23 PM
Waning Crescent, 4% visible
Pressure 30.07 in
Visibility 10.0 miles
Clouds Clear
Dew Point 46 °F
Humidity 61%
Rainfall 0.25 in
Snow Depth Not available.
UV 1 out of 12
Pollen 1.20 out of 12
Air Quality Not available.
Flu Activity Sporadic
METAR KO86 212355Z AUTO 00000KT 10SM CLR 14/05 A3007 RMK AO1

More Conditions Fewer Conditions

Pressure 30.07 in
Visibility 10.0 miles
Clouds Clear
Dew Point 46 °F
Humidity 61%
Rainfall 0.25 in
Snow Depth Not available.
UV 1 out of 12
Pollen 1.20 out of 12
Air Quality Not available.
Flu Activity Sporadic
METAR KO86 212355Z AUTO 00000KT 10SM CLR 14/05 A3007 RMK AO1

More Conditions Fewer Conditions

10-Day Weather Forecast

Almanac

Astronomy

Oct. 21, 2014 Rise Set
Actual Time 7:32 AM PDT 6:23 PM PDT
Civil Twilight 7:04 AM PDT 6:51 PM PDT
Nautical Twilight 6:32 AM PDT 7:24 PM PDT
Astronomical Twilight 6:00 AM PDT 7:56 PM PDT
Moon 5:20 AM PDT (10/21) 5:21 PM PDT (10/21)
Length of Visible Light 11h 47m
Length of Day
10h 50m
Tomorrow will be 2m 36s shorter.
Waning Crescent, 4% of the Moon is Illuminated
Today
Waning Crescent
Oct 23
New
Oct 30
First Quarter
Nov 6
Full
Nov 14
Last Quarter

Today's Extremes

State Highs State Lows

Community

WunderPhotos

Upload Photos

1,763,824 photos uploaded!

Nearby

Snow Depth

Station Depth Elevation
Adin Mountain 1 in 6200 ft
Ward Creek #3 1 in 6750 ft
Echo Peak 0 in 7800 ft
Leavitt Meadows 0 in 7200 ft

Earthquake Activity

City Distance Mag. Time & Date
Crescent City, California 78 miles 2.6 1:22 AM PDT
2014-10-21
Rio Dell, California 92 miles 4.2 7:24 AM PDT
2014-10-19
Minimum magnitude displayed is 2.5.

Coastal Water Temperatures

Place Temperature
Crescent City, CA 60.1 °F
North Spit, CA 59.0 °F
Port Orford, OR 57.9 °F

Nearby Weather Stations